sensor_id;sensor_type;location;lat;lon;timestamp;pressure;altitude;pressure_sealevel;temperature;humidity
69593;BME280;56796;50.122;14.468;2023-02-17T00:15:11;985.91;;;6.1;86.77
69593;BME280;56796;50.122;14.468;2023-02-17T00:34:38;985.7;;;6.05;87.17
69593;BME280;56796;50.122;14.468;2023-02-17T00:54:04;985.74;;;6.04;87.22
69593;BME280;56796;50.122;14.468;2023-02-17T01:13:29;985.67;;;5.88;87.54
69593;BME280;56796;50.122;14.468;2023-02-17T01:32:54;985.36;;;5.93;86.87
69593;BME280;56796;50.122;14.468;2023-02-17T01:52:21;985.17;;;5.81;87.05
69593;BME280;56796;50.122;14.468;2023-02-17T02:11:46;984.84;;;5.73;86.88
69593;BME280;56796;50.122;14.468;2023-02-17T03:10:04;984.19;;;5.64;86.21
69593;BME280;56796;50.122;14.468;2023-02-17T03:29:29;983.98;;;5.85;85.53
69593;BME280;56796;50.122;14.468;2023-02-17T03:48:57;983.91;;;6.1;84.85
69593;BME280;56796;50.122;14.468;2023-02-17T04:08:23;983.87;;;6.28;84
69593;BME280;56796;50.122;14.468;2023-02-17T04:27:50;983.69;;;6.31;83.85
69593;BME280;56796;50.122;14.468;2023-02-17T04:47:17;983.6;;;6.42;83.62
69593;BME280;56796;50.122;14.468;2023-02-17T05:06:44;983.61;;;6.58;83.02
69593;BME280;56796;50.122;14.468;2023-02-17T05:26:10;983.57;;;6.92;81.91
69593;BME280;56796;50.122;14.468;2023-02-17T05:45:37;983.51;;;7.27;81.29
69593;BME280;56796;50.122;14.468;2023-02-17T06:05:05;983.42;;;7.56;81.51
69593;BME280;56796;50.122;14.468;2023-02-17T06:24:32;983.43;;;7.63;81.82
69593;BME280;56796;50.122;14.468;2023-02-17T06:43:58;983.43;;;7.45;84.21
69593;BME280;56796;50.122;14.468;2023-02-17T07:03:27;983.36;;;7.34;86.49
69593;BME280;56796;50.122;14.468;2023-02-17T07:22:49;983.46;;;7.54;86.4
69593;BME280;56796;50.122;14.468;2023-02-17T07:42:14;983.56;;;7.83;85.84
69593;BME280;56796;50.122;14.468;2023-02-17T08:01:43;983.5;;;8.05;86.45
69593;BME280;56796;50.122;14.468;2023-02-17T08:21:01;983.39;;;8.31;87.19
69593;BME280;56796;50.122;14.468;2023-02-17T08:40:29;983.4;;;8.41;87.14
69593;BME280;56796;50.122;14.468;2023-02-17T08:59:55;983.2;;;8.47;85.67
69593;BME280;56796;50.122;14.468;2023-02-17T09:19:22;982.89;;;8.58;84.35
69593;BME280;56796;50.122;14.468;2023-02-17T09:38:48;983.16;;;8.76;83.6
69593;BME280;56796;50.122;14.468;2023-02-17T09:58:15;983.09;;;8.82;83.34
69593;BME280;56796;50.122;14.468;2023-02-17T10:17:43;982.99;;;8.96;83.21
69593;BME280;56796;50.122;14.468;2023-02-17T10:37:10;982.65;;;9.17;83.11
69593;BME280;56796;50.122;14.468;2023-02-17T10:56:37;982.21;;;9.56;82.61
69593;BME280;56796;50.122;14.468;2023-02-17T11:15:56;982.05;;;9.99;82
69593;BME280;56796;50.122;14.468;2023-02-17T11:35:24;981.9;;;10.07;82.77
69593;BME280;56796;50.122;14.468;2023-02-17T11:54:54;981.43;;;10.12;82.73
69593;BME280;56796;50.122;14.468;2023-02-17T12:14:21;981.33;;;10.09;83.22
69593;BME280;56796;50.122;14.468;2023-02-17T12:33:47;980.86;;;10.12;83.96
69593;BME280;56796;50.122;14.468;2023-02-17T12:53:11;980.96;;;10.14;84.28
69593;BME280;56796;50.122;14.468;2023-02-17T13:12:38;980.67;;;9.97;87.54
69593;BME280;56796;50.122;14.468;2023-02-17T13:32:06;980.52;;;9.8;89.86
69593;BME280;56796;50.122;14.468;2023-02-17T13:51:24;980.45;;;10.14;88.63
69593;BME280;56796;50.122;14.468;2023-02-17T14:10:50;979.98;;;10.28;88.65
69593;BME280;56796;50.122;14.468;2023-02-17T14:49:43;979.37;;;10.63;88.08
69593;BME280;56796;50.122;14.468;2023-02-17T15:09:11;979.6;;;10.68;87.82
69593;BME280;56796;50.122;14.468;2023-02-17T15:28:37;979.26;;;10.73;87.45
69593;BME280;56796;50.122;14.468;2023-02-17T15:48:05;979.33;;;10.82;87.27
69593;BME280;56796;50.122;14.468;2023-02-17T16:07:29;979.27;;;10.86;87.7
69593;BME280;56796;50.122;14.468;2023-02-17T16:26:56;979.19;;;10.82;88.74
69593;BME280;56796;50.122;14.468;2023-02-17T16:46:25;978.89;;;10.71;89.67
69593;BME280;56796;50.122;14.468;2023-02-17T17:05:52;979.03;;;10.87;89.53
69593;BME280;56796;50.122;14.468;2023-02-17T17:25:10;979.34;;;10.91;88.68
69593;BME280;56796;50.122;14.468;2023-02-17T17:44:39;979.49;;;10.82;88.87
69593;BME280;56796;50.122;14.468;2023-02-17T18:03:58;979.6;;;10.98;87.54
69593;BME280;56796;50.122;14.468;2023-02-17T18:23:25;979.79;;;11.15;86.81
69593;BME280;56796;50.122;14.468;2023-02-17T18:42:54;979.32;;;11.36;86.37
69593;BME280;56796;50.122;14.468;2023-02-17T19:02:19;978.99;;;11.33;87.06
69593;BME280;56796;50.122;14.468;2023-02-17T19:21:46;979.53;;;11.38;87.57
69593;BME280;56796;50.122;14.468;2023-02-17T19:41:16;979.51;;;11.5;87.69
69593;BME280;56796;50.122;14.468;2023-02-17T20:00:34;979.67;;;11.55;87.85
69593;BME280;56796;50.122;14.468;2023-02-17T20:20:02;979.72;;;11.64;87.58
69593;BME280;56796;50.122;14.468;2023-02-17T20:39:28;979.87;;;11.74;86.73
69593;BME280;56796;50.122;14.468;2023-02-17T20:58:54;979.94;;;11.73;86.39
69593;BME280;56796;50.122;14.468;2023-02-17T21:18:20;980.16;;;11.82;85.76
69593;BME280;56796;50.122;14.468;2023-02-17T21:37:47;980.24;;;11.77;86.49
69593;BME280;56796;50.122;14.468;2023-02-17T21:57:13;980.04;;;11.67;87.36
69593;BME280;56796;50.122;14.468;2023-02-17T22:16:39;980.44;;;11.57;87.81
69593;BME280;56796;50.122;14.468;2023-02-17T22:36:06;981.07;;;10.93;92.44
69593;BME280;56796;50.122;14.468;2023-02-17T22:55:32;981.3;;;10.3;97.82
69593;BME280;56796;50.122;14.468;2023-02-17T23:14:48;981.29;;;9.87;98.79
69593;BME280;56796;50.122;14.468;2023-02-17T23:34:15;981.27;;;10.18;95.35
69593;BME280;56796;50.122;14.468;2023-02-17T23:53:40;981.59;;;10.03;95.91
